Time;durP1;ratioP1;P1;durP2;ratioP2;P2;SDS_P1;SDS_P2;PMS_P1;PMS_P2;Temp;Humidity;BMP_temperature;BMP_pressure;BME280_temperature;BME280_humidity;BME280_pressure;Samples;Min_cycle;Max_cycle;Signal;HPM_P1;HPM_P2
2021/09/21 00:02:25;;;;;;;10.98;5.70;;;;;;;13.78;57.98;102297.03;5075273;28;20043;-76
2021/09/21 00:04:54;;;;;;;15.77;5.35;;;;;;;13.72;58.09;102302.09;5090259;28;20052;-77
2021/09/21 00:07:21;;;;;;;12.55;5.18;;;;;;;13.69;58.24;102303.19;5092331;28;20051;-77
2021/09/21 00:09:47;;;;;;;15.13;6.10;;;;;;;13.70;58.30;102306.69;5092531;28;20123;-76
2021/09/21 00:12:15;;;;;;;12.18;6.18;;;;;;;13.67;58.47;102310.47;5092436;28;20489;-77
2021/09/21 00:14:42;;;;;;;14.63;5.75;;;;;;;13.68;58.57;102314.84;5092193;28;20036;-77
2021/09/21 00:17:09;;;;;;;10.45;5.32;;;;;;;13.69;58.57;102319.19;5093361;28;20560;-76
2021/09/21 00:19:36;;;;;;;12.60;5.95;;;;;;;13.69;58.36;102321.03;5093525;28;20050;-76
2021/09/21 00:22:03;;;;;;;10.38;5.70;;;;;;;13.71;58.71;102332.38;5093103;28;20130;-76
2021/09/21 00:24:30;;;;;;;11.55;5.80;;;;;;;13.74;58.37;102330.28;5092141;28;20043;-76
2021/09/21 00:26:57;;;;;;;13.32;6.03;;;;;;;13.74;58.43;102322.28;5092117;28;20044;-76
2021/09/21 00:29:24;;;;;;;13.15;5.45;;;;;;;13.80;58.49;102337.75;5075980;28;20064;-76
2021/09/21 00:31:59;;;;;;;17.83;5.93;;;;;;;13.69;58.29;102340.53;5092915;28;20068;-76
2021/09/21 00:34:37;;;;;;;17.02;5.78;;;;;;;13.66;58.15;102339.94;5074294;28;20047;-75
2021/09/21 00:37:05;;;;;;;13.88;5.70;;;;;;;13.61;58.53;102346.53;5091673;28;20504;-76
2021/09/21 00:39:32;;;;;;;12.82;5.65;;;;;;;13.67;58.59;102349.66;5091496;28;20403;-75
2021/09/21 00:41:59;;;;;;;13.20;5.88;;;;;;;13.69;58.51;102355.69;5058309;28;20036;-76
2021/09/21 00:44:26;;;;;;;12.35;5.78;;;;;;;13.55;58.69;102354.22;5092819;28;20047;-76
2021/09/21 00:46:53;;;;;;;14.98;5.40;;;;;;;13.61;58.58;102362.53;5092834;28;20048;-76
2021/09/21 00:49:20;;;;;;;12.38;6.28;;;;;;;13.54;58.77;102363.22;5091910;28;20046;-76
2021/09/21 00:51:47;;;;;;;11.65;6.28;;;;;;;13.61;58.59;102365.19;5091563;28;20066;-76
2021/09/21 00:54:14;;;;;;;15.88;6.32;;;;;;;13.61;58.90;102354.53;5075092;28;20407;-76
2021/09/21 00:56:41;;;;;;;13.35;5.90;;;;;;;13.64;58.97;102348.06;5092916;28;20512;-76
2021/09/21 00:59:08;;;;;;;13.50;5.78;;;;;;;13.66;58.87;102348.81;5092477;28;20413;-76
2021/09/21 01:01:34;;;;;;;14.27;5.60;;;;;;;13.70;58.87;102347.56;5092812;28;20044;-76
2021/09/21 01:04:03;;;;;;;15.70;5.80;;;;;;;13.61;59.33;102348.38;5090824;28;20114;-77
2021/09/21 01:06:30;;;;;;;11.60;5.93;;;;;;;13.55;59.04;102351.56;5092829;28;20046;-77
2021/09/21 01:08:57;;;;;;;14.90;6.03;;;;;;;13.54;58.99;102355.22;5092875;28;20123;-76
2021/09/21 01:11:24;;;;;;;13.73;6.40;;;;;;;13.56;58.94;102358.59;5074716;28;20044;-77
2021/09/21 01:13:51;;;;;;;12.38;6.40;;;;;;;13.65;58.78;102359.59;5074782;28;20071;-76
2021/09/21 01:16:22;;;;;;;14.90;5.80;;;;;;;13.63;59.18;102352.56;5091608;28;20043;-76
2021/09/21 01:18:49;;;;;;;13.87;6.37;;;;;;;13.61;58.92;102354.53;5111442;28;20590;-76
2021/09/21 01:21:16;;;;;;;19.67;5.95;;;;;;;13.62;59.11;102356.25;5111921;28;20048;-76
2021/09/21 01:23:49;;;;;;;14.77;6.22;;;;;;;13.68;59.68;102356.66;5094544;28;20050;-76
2021/09/21 01:26:18;;;;;;;12.75;6.05;;;;;;;13.60;59.58;102354.66;5111916;28;20100;-76
2021/09/21 01:28:45;;;;;;;12.48;6.03;;;;;;;13.61;60.14;102359.88;5106065;28;20051;-76
2021/09/21 01:31:12;;;;;;;13.30;5.90;;;;;;;13.55;59.79;102355.09;5090898;28;20040;-76
2021/09/21 01:33:47;;;;;;;14.18;5.90;;;;;;;13.54;59.37;102352.56;5091431;28;20040;-76
2021/09/21 01:36:16;;;;;;;16.55;6.38;;;;;;;13.61;59.68;102364.38;5092390;28;20064;-76
2021/09/21 01:38:43;;;;;;;15.30;6.15;;;;;;;13.60;60.01;102360.84;5092443;28;20044;-76
2021/09/21 01:41:10;;;;;;;17.17;6.20;;;;;;;13.52;59.65;102354.50;5090820;28;20489;-76
2021/09/21 01:43:40;;;;;;;14.00;6.00;;;;;;;13.50;59.70;102359.09;5092241;28;20036;-76
2021/09/21 01:46:07;;;;;;;12.57;6.20;;;;;;;13.53;59.91;102359.69;5090206;28;20449;-76
2021/09/21 01:48:34;;;;;;;15.18;5.97;;;;;;;13.62;59.87;102364.25;5093136;28;20047;-76
2021/09/21 01:51:04;;;;;;;12.82;6.13;;;;;;;13.67;59.73;102363.81;5094496;28;20471;-77
2021/09/21 01:59:05;;;;;;;12.70;6.05;;;;;;;13.68;59.41;102356.66;5095534;28;20036;-76
2021/09/21 02:01:33;;;;;;;13.52;5.97;;;;;;;13.55;59.68;102355.09;5095513;28;20055;-76
2021/09/21 02:04:04;;;;;;;17.88;6.30;;;;;;;13.61;59.30;102361.69;5095818;28;20036;-76
2021/09/21 02:06:35;;;;;;;14.32;6.70;;;;;;;13.52;59.34;102368.69;5095543;28;20404;-76
2021/09/21 02:09:05;;;;;;;14.93;6.22;;;;;;;13.52;59.80;102365.16;5077855;28;20064;-76
2021/09/21 02:11:32;;;;;;;15.50;6.03;;;;;;;13.53;59.91;102365.00;5095531;28;20039;-76
2021/09/21 02:14:00;;;;;;;20.55;5.82;;;;;;;13.61;59.49;102372.38;5095464;28;20047;-77
2021/09/21 02:16:29;;;;;;;13.82;6.22;;;;;;;13.59;59.76;102369.81;5091940;28;20048;-76
2021/09/21 02:18:57;;;;;;;12.30;6.47;;;;;;;13.57;60.32;102368.25;5095433;28;20063;-76
2021/09/21 02:21:25;;;;;;;15.35;6.13;;;;;;;13.43;60.26;102377.47;5077220;28;20048;-76
2021/09/21 02:23:54;;;;;;;13.25;6.60;;;;;;;13.44;60.09;102372.00;5095424;28;20036;-76
2021/09/21 02:26:21;;;;;;;17.55;6.93;;;;;;;13.47;60.25;102367.38;5094250;28;20040;-76
2021/09/21 02:28:48;;;;;;;14.57;6.10;;;;;;;13.48;60.44;102375.25;5093780;28;20058;-76
2021/09/21 02:31:15;;;;;;;14.25;6.22;;;;;;;13.46;60.71;102369.19;5076831;28;20046;-76
2021/09/21 02:33:42;;;;;;;12.45;6.07;;;;;;;13.47;60.75;102362.06;5095064;28;20485;-76
2021/09/21 02:36:09;;;;;;;13.38;5.90;;;;;;;13.40;60.71;102359.91;5095025;28;20484;-76
2021/09/21 02:38:36;;;;;;;17.58;6.38;;;;;;;13.41;60.70;102352.78;5093621;28;20078;-75
2021/09/21 02:41:05;;;;;;;16.33;6.20;;;;;;;13.41;60.91;102355.44;5094603;28;20044;-76
2021/09/21 02:43:33;;;;;;;17.88;6.28;;;;;;;13.35;60.91;102340.84;5092922;28;20040;-76
2021/09/21 02:46:01;;;;;;;14.05;6.47;;;;;;;13.27;60.81;102363.75;5076999;28;20040;-76
2021/09/21 02:48:29;;;;;;;14.82;6.53;;;;;;;13.20;60.39;102358.09;5094795;28;20044;-77
2021/09/21 02:50:56;;;;;;;13.98;6.45;;;;;;;13.29;60.89;102362.63;5094794;28;20048;-75
2021/09/21 02:53:23;;;;;;;11.43;6.07;;;;;;;13.32;60.46;102372.22;5093480;28;20079;-76
2021/09/21 02:55:50;;;;;;;18.20;6.22;;;;;;;13.30;60.74;102376.78;5093765;28;20044;-76
2021/09/21 02:58:17;;;;;;;12.18;6.40;;;;;;;13.36;60.09;102373.66;5094315;28;20048;-76
2021/09/21 03:00:46;;;;;;;11.82;6.20;;;;;;;13.30;60.31;102375.00;5076481;28;20542;-76
2021/09/21 03:03:14;;;;;;;12.07;6.10;;;;;;;13.33;60.40;102369.41;5094609;28;20047;-76
2021/09/21 03:05:44;;;;;;;14.65;6.47;;;;;;;13.35;61.05;102364.81;5093392;28;20040;-76
2021/09/21 03:08:16;;;;;;;13.80;6.13;;;;;;;13.30;61.18;102364.34;5094847;28;20101;-75
2021/09/21 03:10:53;;;;;;;13.10;6.47;;;;;;;13.30;61.33;102368.78;5074547;28;20044;-76
2021/09/21 03:18:47;;;;;;;14.93;6.20;;;;;;;13.16;61.24;102356.69;5123193;28;20040;-77
2021/09/21 03:21:13;;;;;;;14.60;6.10;;;;;;;13.13;60.00;102364.94;5129930;28;20036;-77
2021/09/21 03:23:40;;;;;;;14.98;6.40;;;;;;;13.02;60.24;102371.16;5131200;27;20484;-76
2021/09/21 03:26:07;;;;;;;17.65;6.75;;;;;;;13.01;60.60;102370.34;5112523;28;20508;-76
2021/09/21 03:28:34;;;;;;;14.40;6.40;;;;;;;13.01;60.67;102377.50;5124625;28;20093;-76
2021/09/21 03:31:03;;;;;;;13.75;5.93;;;;;;;12.94;60.85;102378.97;5108982;28;20035;-76
2021/09/21 03:33:30;;;;;;;17.20;6.90;;;;;;;12.81;60.77;102389.81;5109306;28;20046;-76
2021/09/21 03:35:56;;;;;;;15.43;6.40;;;;;;;12.85;61.50;102393.91;5108588;28;20040;-76
2021/09/21 03:38:23;;;;;;;17.45;6.70;;;;;;;12.83;61.51;102398.53;5110613;28;20400;-76
2021/09/21 03:40:50;;;;;;;15.10;6.10;;;;;;;12.85;61.49;102400.06;5110542;28;20052;-77
2021/09/21 03:43:17;;;;;;;14.15;6.47;;;;;;;12.88;61.89;102401.66;5111483;28;20043;-77
2021/09/21 03:45:44;;;;;;;16.30;7.18;;;;;;;12.91;62.13;102403.19;5109655;28;20035;-76
2021/09/21 03:48:12;;;;;;;18.25;7.00;;;;;;;12.93;61.92;102404.75;5109416;28;20051;-76
2021/09/21 03:50:38;;;;;;;15.15;6.97;;;;;;;12.97;61.49;102406.19;5110227;28;20047;-76
2021/09/21 03:53:05;;;;;;;16.05;7.18;;;;;;;12.90;61.51;102413.03;5109156;28;20162;-77
2021/09/21 03:55:32;;;;;;;14.93;6.95;;;;;;;12.88;61.64;102414.97;5108681;28;20050;-76
2021/09/21 03:57:59;;;;;;;15.93;7.03;;;;;;;12.93;61.38;102422.56;5108696;28;20043;-76
2021/09/21 04:00:26;;;;;;;17.88;7.45;;;;;;;12.90;61.54;102433.47;5088364;28;20523;-76
2021/09/21 04:02:53;;;;;;;13.60;6.97;;;;;;;12.94;61.31;102432.25;5071410;28;20058;-76
2021/09/21 04:05:19;;;;;;;16.58;7.30;;;;;;;12.98;61.62;102436.34;5089754;28;20043;-75
2021/09/21 04:07:49;;;;;;;15.23;7.30;;;;;;;12.97;61.54;102446.16;5104866;28;20044;-76
2021/09/21 04:10:17;;;;;;;15.73;6.55;;;;;;;13.00;61.12;102453.88;5088127;28;20040;-76
2021/09/21 04:12:44;;;;;;;14.35;6.22;;;;;;;13.05;60.58;102457.00;5069492;28;20127;-76
2021/09/21 04:15:12;;;;;;;17.20;7.38;;;;;;;13.02;60.65;102457.28;5088605;28;20135;-76
2021/09/21 04:17:39;;;;;;;17.00;6.90;;;;;;;13.09;60.48;102464.75;5089105;28;20036;-76
2021/09/21 04:20:06;;;;;;;16.60;6.82;;;;;;;13.03;60.88;102463.44;5088038;28;20040;-76
2021/09/21 04:22:33;;;;;;;15.02;6.35;;;;;;;13.06;60.58;102455.19;5104563;28;20076;-76
2021/09/21 04:25:00;;;;;;;16.52;6.38;;;;;;;13.12;60.13;102465.34;5104744;28;20405;-76
2021/09/21 04:27:27;;;;;;;14.98;7.18;;;;;;;13.16;60.15;102471.25;5075048;28;20041;-76
2021/09/21 04:29:59;;;;;;;20.17;7.05;;;;;;;13.12;59.67;102475.16;5091686;28;20044;-75
2021/09/21 04:32:26;;;;;;;;;;;;;;;13.12;60.33;102473.34;5096083;28;20504;-75
2021/09/21 04:34:53;;;;;;;13.10;6.32;;;;;;;13.09;60.36;102478.91;5095810;28;19927;-76
2021/09/21 04:37:20;;;;;;;12.70;6.57;;;;;;;13.14;60.74;102481.19;5095507;28;20078;-76
2021/09/21 04:39:47;;;;;;;13.00;6.78;;;;;;;13.13;60.12;102484.81;5092257;28;20040;-76
2021/09/21 04:42:14;;;;;;;15.50;6.28;;;;;;;13.10;60.58;102479.75;5095610;28;20587;-76
2021/09/21 04:44:41;;;;;;;12.85;6.65;;;;;;;13.00;59.98;102483.19;5077412;28;20132;-76
2021/09/21 04:47:08;;;;;;;16.65;6.88;;;;;;;12.93;60.18;102492.66;5094051;28;20075;-75
2021/09/21 04:49:34;;;;;;;15.77;6.72;;;;;;;12.93;60.70;102487.31;5060879;28;20040;-75
2021/09/21 04:52:02;;;;;;;19.20;7.70;;;;;;;13.06;59.99;102496.00;5060860;28;20392;-76
2021/09/21 04:54:28;;;;;;;15.88;6.82;;;;;;;12.96;60.53;102496.91;5095242;28;20484;-76
2021/09/21 04:56:55;;;;;;;18.17;6.82;;;;;;;13.03;60.18;102506.91;5077436;28;20488;-77
2021/09/21 04:59:22;;;;;;;27.27;6.82;;;;;;;12.94;59.50;102501.50;5093613;28;20046;-76
2021/09/21 05:01:49;;;;;;;14.27;6.65;;;;;;;12.96;60.44;102504.88;5093600;28;20093;-75
2021/09/21 05:04:16;;;;;;;18.05;6.80;;;;;;;12.94;60.42;102506.84;5092907;28;20074;-75
2021/09/21 05:06:43;;;;;;;18.25;7.45;;;;;;;12.98;60.78;102516.25;5093670;28;20071;-76
2021/09/21 05:09:13;;;;;;;16.88;7.13;;;;;;;13.00;61.17;102516.97;5077161;28;20044;-75
2021/09/21 05:11:40;;;;;;;18.35;7.38;;;;;;;12.90;61.09;102516.91;5094998;28;20036;-76
2021/09/21 05:14:08;;;;;;;19.38;7.70;;;;;;;12.82;61.12;102520.19;5094586;28;20570;-76
2021/09/21 05:16:35;;;;;;;16.08;7.38;;;;;;;12.75;61.14;102523.47;5094564;28;20044;-76
2021/09/21 05:19:02;;;;;;;19.50;7.50;;;;;;;12.80;60.60;102526.59;5101804;28;20046;-76
2021/09/21 05:21:29;;;;;;;20.95;7.88;;;;;;;12.83;60.82;102526.34;5113749;28;20530;-76
2021/09/21 05:23:56;;;;;;;15.38;7.40;;;;;;;12.89;60.32;102528.50;5114008;28;20044;-76
2021/09/21 05:26:22;;;;;;;21.00;7.38;;;;;;;12.83;60.59;102529.03;5096995;28;20043;-76
2021/09/21 05:28:49;;;;;;;16.30;7.50;;;;;;;12.87;60.57;102539.28;5119802;27;20040;-76
2021/09/21 05:31:16;;;;;;;16.25;8.23;;;;;;;12.86;61.03;102537.59;5094144;28;20583;-76
2021/09/21 05:33:43;;;;;;;19.67;7.40;;;;;;;12.85;60.72;102545.72;5056076;28;20041;-76
2021/09/21 05:36:10;;;;;;;14.98;7.38;;;;;;;12.89;61.38;102549.81;5038111;28;20043;-76
2021/09/21 05:38:37;;;;;;;17.00;7.78;;;;;;;12.89;61.71;102552.47;5071583;28;20436;-76
2021/09/21 05:41:03;;;;;;;31.90;7.93;;;;;;;12.90;61.85;102542.66;5073457;28;20051;-76
2021/09/21 05:43:30;;;;;;;17.02;7.10;;;;;;;12.87;62.13;102533.94;5073889;28;20517;-75
2021/09/21 05:45:59;;;;;;;18.15;8.15;;;;;;;12.81;62.68;102541.63;5055674;28;20493;-76
2021/09/21 05:48:26;;;;;;;22.92;7.82;;;;;;;12.68;62.21;102541.78;5073696;28;20055;-76
2021/09/21 05:50:52;;;;;;;18.20;7.55;;;;;;;12.65;62.25;102534.84;5071661;28;20090;-75
2021/09/21 05:53:19;;;;;;;20.27;7.53;;;;;;;12.56;63.60;102529.44;5073958;28;20041;-75
2021/09/21 05:55:46;;;;;;;17.45;7.63;;;;;;;12.51;63.83;102524.47;5072417;28;20047;-76
2021/09/21 05:58:13;;;;;;;15.90;7.43;;;;;;;12.51;63.46;102540.44;5074467;28;20048;-76
2021/09/21 06:00:41;;;;;;;19.00;7.57;;;;;;;12.37;62.82;102554.00;5092073;28;20446;-76
2021/09/21 06:03:08;;;;;;;16.55;8.10;;;;;;;12.37;62.91;102554.00;5034221;28;20130;-77
2021/09/21 06:05:35;;;;;;;16.38;8.40;;;;;;;12.36;63.16;102553.16;5094969;28;20040;-77
2021/09/21 06:08:02;;;;;;;19.73;7.93;;;;;;;12.33;63.48;102552.56;5077579;28;20040;-76
2021/09/21 06:10:29;;;;;;;18.23;8.13;;;;;;;12.32;62.87;102558.88;5093889;28;20063;-76
2021/09/21 06:12:56;;;;;;;17.30;8.23;;;;;;;12.34;62.59;102570.22;5093384;28;20048;-76
2021/09/21 06:15:23;;;;;;;20.20;8.13;;;;;;;12.25;61.74;102574.47;5092440;28;20040;-75
2021/09/21 06:17:50;;;;;;;20.17;7.57;;;;;;;12.22;61.70;102578.19;5090608;28;20070;-76
2021/09/21 06:20:18;;;;;;;18.00;7.80;;;;;;;12.25;61.87;102585.09;5092353;28;20050;-76
2021/09/21 06:22:46;;;;;;;20.27;7.80;;;;;;;12.33;61.71;102585.34;5092225;28;20051;-76
2021/09/21 06:25:14;;;;;;;20.27;8.07;;;;;;;12.37;61.80;102584.16;5092375;28;20035;-76
2021/09/21 06:27:41;;;;;;;17.10;8.20;;;;;;;12.40;62.31;102580.38;5092292;28;20515;-76
2021/09/21 06:30:12;;;;;;;18.58;8.18;;;;;;;12.47;62.36;102576.28;5075189;28;20048;-75
2021/09/21 06:32:41;;;;;;;16.98;7.63;;;;;;;12.50;62.16;102576.03;5093360;28;20044;-75
2021/09/21 06:35:09;;;;;;;18.05;7.85;;;;;;;12.47;62.48;102577.09;5093221;28;20040;-75
2021/09/21 06:37:36;;;;;;;23.75;8.50;;;;;;;12.51;62.11;102568.88;5058495;28;20078;-74
2021/09/21 06:40:03;;;;;;;21.02;8.10;;;;;;;12.57;62.77;102571.91;5072021;28;20075;-74
2021/09/21 06:42:33;;;;;;;19.00;8.57;;;;;;;12.60;62.00;102584.97;5070039;28;20044;-75
2021/09/21 06:45:04;;;;;;;22.65;8.13;;;;;;;12.60;62.38;102589.44;5072732;28;20127;-75
2021/09/21 06:47:32;;;;;;;20.55;8.32;;;;;;;12.58;63.24;102583.41;5072910;28;20102;-75
2021/09/21 06:49:59;;;;;;;19.23;8.80;;;;;;;12.53;62.55;102597.06;5089843;28;20466;-75
2021/09/21 06:52:26;;;;;;;22.10;8.55;;;;;;;12.58;63.03;102602.03;5078479;28;20043;-75
2021/09/21 06:54:53;;;;;;;18.90;8.45;;;;;;;12.60;63.45;102606.25;5101146;28;20036;-75
2021/09/21 06:57:19;;;;;;;19.10;8.98;;;;;;;12.60;62.33;102605.44;5098133;28;20066;-75
2021/09/21 06:59:47;;;;;;;18.23;8.00;;;;;;;12.58;61.18;102608.19;5095172;28;20048;-75
2021/09/21 07:02:15;;;;;;;15.23;7.95;;;;;;;12.68;61.79;102611.84;5074379;28;20400;-75
2021/09/21 07:04:41;;;;;;;21.33;7.65;;;;;;;12.65;62.74;102616.56;5099270;28;20047;-75
2021/09/21 07:07:08;;;;;;;18.42;8.23;;;;;;;12.61;62.58;102615.13;5094864;28;20127;-75
2021/09/21 07:09:35;;;;;;;16.38;7.85;;;;;;;12.70;62.13;102614.38;5094810;28;20035;-75
2021/09/21 07:12:03;;;;;;;17.08;7.55;;;;;;;12.67;61.01;102622.59;5084123;28;20051;-74
2021/09/21 07:14:30;;;;;;;14.13;6.97;;;;;;;12.80;59.37;102633.13;5081026;28;20050;-75
2021/09/21 07:16:56;;;;;;;20.23;8.07;;;;;;;12.76;59.74;102629.03;5102868;28;20044;-75
2021/09/21 07:19:23;;;;;;;19.42;7.90;;;;;;;12.82;59.72;102636.50;5097119;28;20048;-75
2021/09/21 07:21:50;;;;;;;18.02;7.45;;;;;;;12.94;59.34;102632.88;5107778;28;20393;-75
2021/09/21 07:24:18;;;;;;;15.93;7.57;;;;;;;13.00;60.64;102637.69;5097445;28;20122;-75
2021/09/21 07:26:48;;;;;;;15.98;7.38;;;;;;;13.02;60.97;102641.09;5060930;28;20326;-76
2021/09/21 07:29:15;;;;;;;21.85;7.30;;;;;;;12.98;59.55;102641.47;5099020;28;20040;-75
2021/09/21 07:31:41;;;;;;;20.48;7.57;;;;;;;12.98;59.03;102644.97;5095088;28;20118;-75
2021/09/21 07:34:09;;;;;;;24.65;7.30;;;;;;;13.01;57.99;102650.06;5074717;28;20047;-76
2021/09/21 07:36:36;;;;;;;20.15;7.68;;;;;;;13.13;58.89;102650.03;5103755;28;20089;-75
2021/09/21 07:39:04;;;;;;;19.33;6.78;;;;;;;13.25;58.51;102655.19;5084446;28;20047;-75
2021/09/21 07:41:31;;;;;;;17.67;6.85;;;;;;;13.33;58.04;102646.59;5095896;28;20123;-75
2021/09/21 07:43:58;;;;;;;15.27;7.43;;;;;;;13.47;57.79;102648.16;5108717;28;20042;-75
2021/09/21 07:46:25;;;;;;;18.90;6.80;;;;;;;13.53;57.26;102644.13;5093735;28;20126;-75
2021/09/21 07:48:52;;;;;;;22.10;7.03;;;;;;;13.62;56.36;102654.03;5094681;28;20071;-75
2021/09/21 07:51:19;;;;;;;18.50;6.43;;;;;;;13.70;56.98;102650.72;5104164;28;20048;-76
2021/09/21 07:53:45;;;;;;;15.70;7.25;;;;;;;13.82;55.80;102650.56;5092473;28;20047;-75
2021/09/21 07:56:12;;;;;;;14.65;6.68;;;;;;;13.86;55.28;102651.16;5103112;28;20122;-76
2021/09/21 07:58:46;;;;;;;20.05;6.63;;;;;;;13.96;54.89;102660.06;5103179;28;20051;-76
2021/09/21 08:01:13;;;;;;;18.17;5.90;;;;;;;14.06;53.49;102660.13;5102956;28;20042;-75
2021/09/21 08:03:40;;;;;;;13.73;5.88;;;;;;;14.13;53.98;102663.94;5110324;28;20043;-75
2021/09/21 08:06:07;;;;;;;17.73;6.13;;;;;;;14.31;53.57;102669.53;5097454;28;20069;-75
2021/09/21 08:08:34;;;;;;;21.85;6.20;;;;;;;14.41;53.21;102664.28;5103720;28;20036;-70
2021/09/21 08:11:02;;;;;;;16.27;5.70;;;;;;;14.55;50.88;102657.72;5092452;28;20047;-70
2021/09/21 08:13:30;;;;;;;14.82;4.95;;;;;;;14.71;49.91;102658.09;5100520;28;20489;-70
2021/09/21 08:15:57;;;;;;;12.70;5.43;;;;;;;14.81;49.71;102654.63;5086040;28;20071;-70
2021/09/21 08:18:24;;;;;;;13.05;5.15;;;;;;;14.87;48.88;102652.25;5091478;28;20038;-70
2021/09/21 08:20:51;;;;;;;13.85;5.20;;;;;;;14.94;48.64;102660.59;5095040;28;20108;-71
2021/09/21 08:23:18;;;;;;;16.27;5.60;;;;;;;15.02;49.22;102651.88;5093388;28;20135;-71
2021/09/21 08:25:44;;;;;;;12.02;4.95;;;;;;;15.13;48.29;102665.13;5058109;28;20055;-71
2021/09/21 08:28:12;;;;;;;14.20;4.80;;;;;;;15.27;49.16;102664.72;5098110;28;20054;-71
2021/09/21 08:30:39;;;;;;;10.43;4.55;;;;;;;15.31;47.63;102663.47;5084469;28;20043;-71
2021/09/21 08:33:05;;;;;;;9.75;4.20;;;;;;;15.47;47.44;102672.78;5110975;28;20066;-71
2021/09/21 08:35:32;;;;;;;12.60;4.40;;;;;;;15.60;48.22;102673.34;5099397;28;20046;-71
2021/09/21 08:37:59;;;;;;;11.02;4.10;;;;;;;15.63;46.53;102678.44;5111774;28;20040;-71
2021/09/21 08:40:26;;;;;;;9.02;3.85;;;;;;;15.59;46.69;102679.69;5100595;28;20080;-71
2021/09/21 08:42:53;;;;;;;9.45;3.97;;;;;;;15.65;46.81;102681.81;5087051;28;20036;-71
2021/09/21 08:45:20;;;;;;;10.70;4.30;;;;;;;15.71;46.44;102680.41;5107331;28;20040;-71
2021/09/21 08:47:47;;;;;;;9.10;4.10;;;;;;;15.94;46.56;102691.69;5098224;28;20093;-71
2021/09/21 08:50:15;;;;;;;14.07;4.35;;;;;;;16.05;46.05;102686.19;5107789;28;20044;-71
2021/09/21 08:52:45;;;;;;;11.82;3.97;;;;;;;16.18;46.57;102691.22;5102857;28;20039;-71
2021/09/21 08:55:14;;;;;;;12.68;3.60;;;;;;;16.29;43.11;102695.59;5101335;28;20124;-72
2021/09/21 08:57:42;;;;;;;15.05;3.97;;;;;;;16.44;43.57;102686.09;5092963;28;20051;-70
2021/09/21 09:00:13;;;;;;;10.27;3.90;;;;;;;16.51;43.82;102697.06;5094273;28;20044;-71
2021/09/21 09:02:40;;;;;;;13.93;4.20;;;;;;;16.75;43.83;102693.03;5106271;27;20036;-71
2021/09/21 09:05:09;;;;;;;8.90;3.58;;;;;;;17.01;43.53;102701.28;5088188;28;20130;-71
2021/09/21 09:07:48;;;;;;;8.82;3.75;;;;;;;17.53;41.66;102684.56;5079351;28;20476;-72
2021/09/21 09:10:15;;;;;;;8.30;3.53;;;;;;;18.08;40.48;102689.81;5083062;28;20036;-71
2021/09/21 09:12:42;;;;;;;8.27;3.75;;;;;;;18.36;39.78;102693.16;5103491;28;20040;-71
2021/09/21 09:15:11;;;;;;;14.05;3.75;;;;;;;19.06;37.58;102685.97;5095416;28;20079;-72
2021/09/21 09:17:39;;;;;;;10.25;3.42;;;;;;;19.74;36.55;102691.19;5054484;28;20043;-72
2021/09/21 09:20:07;;;;;;;9.18;3.47;;;;;;;20.59;34.50;102699.81;5095240;28;20035;-71
2021/09/21 09:22:34;;;;;;;10.52;3.53;;;;;;;21.01;33.67;102682.47;5076359;28;20064;-71
2021/09/21 09:25:05;;;;;;;8.45;3.20;;;;;;;21.52;32.74;102684.72;5088442;28;20541;-72
2021/09/21 09:27:42;;;;;;;13.30;3.55;;;;;;;21.80;31.37;102690.44;5106788;28;20040;-72
2021/09/21 09:30:13;;;;;;;9.63;3.30;;;;;;;22.89;29.64;102687.28;5070826;28;20036;-72
2021/09/21 09:32:44;;;;;;;9.52;3.50;;;;;;;23.31;29.45;102689.25;5073494;28;20063;-72
2021/09/21 09:35:20;;;;;;;12.25;3.58;;;;;;;23.54;28.01;102683.66;5086184;28;20078;-71
2021/09/21 09:37:47;;;;;;;8.80;3.10;;;;;;;24.14;27.05;102684.19;5091971;28;20119;-71
2021/09/21 09:40:14;;;;;;;8.75;3.10;;;;;;;24.20;27.01;102688.00;5081485;28;20122;-72
2021/09/21 09:42:42;;;;;;;11.70;3.08;;;;;;;24.00;27.40;102687.00;5109047;28;20488;-71
2021/09/21 09:45:11;;;;;;;12.32;3.35;;;;;;;24.15;26.98;102685.84;5101029;28;20051;-71
2021/09/21 09:47:47;;;;;;;7.80;2.80;;;;;;;24.98;26.16;102681.53;5099058;28;20035;-73
2021/09/21 09:50:15;;;;;;;11.93;3.25;;;;;;;25.34;25.23;102685.81;5084878;28;20071;-70
2021/09/21 09:52:42;;;;;;;9.82;3.17;;;;;;;25.42;24.38;102681.03;5081245;28;20045;-73
2021/09/21 09:55:09;;;;;;;11.13;3.88;;;;;;;25.00;24.86;102679.47;5091890;28;20146;-73
2021/09/21 09:57:40;;;;;;;9.20;2.97;;;;;;;25.53;23.67;102679.59;5075215;28;20036;-73
2021/09/21 10:00:08;;;;;;;11.65;3.17;;;;;;;25.67;23.68;102681.28;5070904;28;20059;-73
2021/09/21 10:02:40;;;;;;;8.13;2.90;;;;;;;25.62;23.80;102685.66;5091485;28;20044;-73
2021/09/21 10:05:08;;;;;;;14.25;3.25;;;;;;;25.82;23.10;102688.41;5132025;27;20047;-72
2021/09/21 10:07:36;;;;;;;7.93;3.00;;;;;;;26.66;23.28;102683.28;5090989;28;20062;-72
2021/09/21 10:10:04;;;;;;;12.38;3.85;;;;;;;26.83;23.25;102692.63;5090792;28;20043;-72
2021/09/21 10:12:31;;;;;;;13.45;4.50;;;;;;;26.69;24.46;102697.28;5093764;28;20122;-72
2021/09/21 10:14:58;;;;;;;14.02;4.78;;;;;;;26.01;25.59;102700.31;5089782;28;20051;-72
2021/09/21 10:17:25;;;;;;;10.48;4.90;;;;;;;25.63;25.75;102696.34;5074535;28;20033;-72
2021/09/21 10:19:55;;;;;;;15.15;4.90;;;;;;;26.84;24.41;102691.56;5075391;28;20040;-72
2021/09/21 10:22:27;;;;;;;15.27;4.90;;;;;;;27.19;24.74;102686.56;5076185;28;20050;-73
2021/09/21 10:24:54;;;;;;;13.05;4.43;;;;;;;27.30;24.46;102695.97;5084123;28;20085;-73
2021/09/21 10:27:23;;;;;;;11.30;3.95;;;;;;;26.91;24.46;102694.28;5086709;28;20063;-73
2021/09/21 10:30:09;;;;;;;13.48;4.30;;;;;;;27.37;24.04;102691.31;5097033;28;20047;-73
2021/09/21 10:32:46;;;;;;;12.68;4.95;;;;;;;26.63;24.57;102698.13;5090332;28;20134;-72
2021/09/21 10:35:16;;;;;;;11.20;4.60;;;;;;;24.98;27.39;102697.81;5063499;28;20037;-72
2021/09/21 10:37:43;;;;;;;10.52;4.80;;;;;;;23.15;29.89;102698.44;5072943;28;20492;-71
2021/09/21 10:40:10;;;;;;;12.07;4.45;;;;;;;22.24;32.64;102704.03;5072369;28;20040;-72
2021/09/21 10:42:50;;;;;;;14.52;4.75;;;;;;;21.18;33.61;102689.47;5080106;28;20047;-76
2021/09/21 10:45:25;;;;;;;15.70;4.90;;;;;;;20.00;36.36;102695.53;5065803;28;20170;-76
2021/09/21 10:48:02;;;;;;;13.77;4.95;;;;;;;19.24;38.00;102700.13;5080794;28;20111;-75
2021/09/21 10:50:29;;;;;;;13.05;5.38;;;;;;;19.49;38.05;102710.97;5087323;28;20052;-75
2021/09/21 10:53:06;;;;;;;13.23;5.25;;;;;;;19.35;38.27;102713.28;5088753;28;20119;-76
2021/09/21 10:55:36;;;;;;;12.68;5.20;;;;;;;19.38;37.45;102709.44;5085087;28;20036;-75
2021/09/21 10:58:04;;;;;;;10.68;4.82;;;;;;;19.41;37.94;102703.72;5078949;28;20064;-74
2021/09/21 11:00:34;;;;;;;11.52;4.70;;;;;;;19.88;37.62;102703.13;5080002;28;20155;-76
2021/09/21 11:03:04;;;;;;;10.40;4.70;;;;;;;20.60;34.96;102701.50;5087999;28;20083;-76
2021/09/21 11:05:31;;;;;;;14.30;4.80;;;;;;;21.00;34.90;102697.00;5102571;28;20044;-75
2021/09/21 11:08:03;;;;;;;10.68;4.13;;;;;;;21.46;33.82;102689.81;5088847;28;20071;-75
2021/09/21 11:10:33;;;;;;;9.23;4.20;;;;;;;21.09;34.93;102685.16;5074279;28;20674;-76
2021/09/21 11:13:00;;;;;;;15.30;4.90;;;;;;;20.27;35.91;102686.25;5077601;28;20047;-76
2021/09/21 11:15:28;;;;;;;15.52;4.78;;;;;;;20.08;35.64;102694.69;5090523;28;20048;-76
2021/09/21 11:18:06;;;;;;;11.90;4.57;;;;;;;20.71;34.90;102691.22;5083419;28;20062;-75
2021/09/21 11:20:44;;;;;;;11.73;3.95;;;;;;;20.71;33.75;102679.59;5080048;28;20115;-76
2021/09/21 11:23:11;;;;;;;9.77;4.38;;;;;;;21.07;33.54;102684.50;5073248;28;20076;-76
2021/09/21 11:25:38;;;;;;;11.48;4.22;;;;;;;21.26;34.28;102681.31;5080110;28;20048;-76
2021/09/21 11:28:06;;;;;;;12.43;4.00;;;;;;;21.33;34.25;102678.75;5083949;28;20123;-76
2021/09/21 11:30:33;;;;;;;10.20;3.92;;;;;;;21.31;34.42;102679.97;5086417;28;20037;-76
2021/09/21 11:33:11;;;;;;;13.57;3.63;;;;;;;21.37;34.02;102674.69;5072454;28;20119;-75